Time;durP1;ratioP1;P1;durP2;ratioP2;P2;SDS_P1;SDS_P2;PMS_P1;PMS_P2;Temp;Humidity;BMP_temperature;BMP_pressure;BME280_temperature;BME280_humidity;BME280_pressure;Samples;Min_cycle;Max_cycle;Signal;HPM_P1;HPM_P2
2021/09/24 08:37:49;;;;;;;29.88;13.57;;;17.40;99.90;;;;;;14682293;22;1376663;-66
2021/09/24 08:43:36;;;;;;;25.02;12.63;;;19.30;99.90;;;;;;14557769;23;20037;-66
2021/09/24 08:49:23;;;;;;;24.23;12.45;;;19.50;99.90;;;;;;14560874;23;20025;-66
2021/09/24 08:55:12;;;;;;;27.33;11.57;;;19.70;99.90;;;;;;14564830;23;20037;-66
2021/09/24 09:00:59;;;;;;;21.63;11.05;;;19.80;99.90;;;;;;14509356;23;20022;-66
2021/09/24 09:07:02;;;;;;;20.60;10.88;;;19.80;99.90;;;;;;14590307;23;20110;-66
2021/09/24 09:12:54;;;;;;;51.60;30.50;;;19.80;99.90;;;;;;14564088;23;20038;-70
2021/09/24 09:18:49;;;;;;;35.28;21.55;;;20.10;99.90;;;;;;14495969;23;20265;-69
2021/09/24 09:24:51;;;;;;;18.02;10.48;;;20.30;99.90;;;;;;14490469;23;20026;-68
2021/09/24 09:31:08;;;;;;;17.47;10.13;;;20.30;99.90;;;;;;14474087;23;20018;-68
2021/09/24 09:37:02;;;;;;;17.60;10.05;;;20.10;99.90;;;;;;14459482;23;20112;-68
2021/09/24 09:42:55;;;;;;;18.27;10.07;;;20.00;99.90;;;;;;14422050;23;20034;-68
2021/09/24 09:54:44;;;;;;;17.13;10.25;;;20.10;99.90;;;;;;14467023;23;20030;-69
2021/09/24 10:00:36;;;;;;;19.50;9.35;;;20.10;99.90;;;;;;14441230;23;20093;-70
2021/09/24 10:06:33;;;;;;;16.10;9.90;;;20.00;99.90;;;;;;14503675;23;20098;-69
2021/09/24 10:12:26;;;;;;;16.20;9.63;;;20.10;99.90;;;;;;14399455;23;20093;-68
2021/09/24 10:18:15;;;;;;;15.25;8.30;;;20.20;99.90;;;;;;14453952;23;20484;-68
2021/09/24 10:24:04;;;;;;;15.45;9.13;;;20.10;99.90;;;;;;14393306;23;20376;-69
2021/09/24 10:30:02;;;;;;;13.73;7.45;;;20.40;99.90;;;;;;14496732;23;20346;-69
2021/09/24 10:36:00;;;;;;;16.42;8.80;;;20.70;99.90;;;;;;14443775;23;20042;-69
2021/09/24 10:42:32;;;;;;;16.65;8.60;;;20.90;99.90;;;;;;14472540;23;20026;-69
2021/09/24 10:48:32;;;;;;;16.65;8.18;;;20.90;99.90;;;;;;14462554;23;20018;-69
2021/09/24 10:54:21;;;;;;;14.35;8.30;;;20.90;99.90;;;;;;14501515;23;20563;-69
2021/09/24 11:00:27;;;;;;;13.57;7.85;;;21.00;99.90;;;;;;14507705;23;20023;-69
2021/09/24 11:06:36;;;;;;;16.85;8.25;;;20.80;99.90;;;;;;14513230;23;20461;-69
2021/09/24 11:12:25;;;;;;;14.27;7.18;;;20.70;99.90;;;;;;14505162;23;20121;-69
2021/09/24 11:18:45;;;;;;;11.48;7.25;;;20.60;99.90;;;;;;14466737;23;20221;-68
2021/09/24 11:24:41;;;;;;;16.05;8.00;;;20.50;99.90;;;;;;14470317;23;20481;-69
2021/09/24 11:37:00;;;;;;;15.93;7.63;;;20.40;99.90;;;;;;14499315;23;20036;-69
2021/09/24 11:42:53;;;;;;;12.60;7.63;;;20.40;99.90;;;;;;14458942;23;20114;-69
2021/09/24 11:48:42;;;;;;;14.80;7.88;;;20.50;99.90;;;;;;14460272;23;20365;-69
2021/09/24 11:54:29;;;;;;;13.60;7.05;;;20.50;99.90;;;;;;14490768;23;20465;-69
2021/09/24 12:00:31;;;;;;;13.68;7.57;;;20.70;99.90;;;;;;14498224;23;20032;-69
2021/09/24 12:06:22;;;;;;;14.68;6.97;;;20.70;99.90;;;;;;14514436;23;20026;-69
2021/09/24 12:12:10;;;;;;;12.30;6.53;;;21.30;99.90;;;;;;14448677;23;20037;-67
2021/09/24 12:17:58;;;;;;;16.65;6.85;;;21.70;99.90;;;;;;14494553;23;20022;-67
2021/09/24 12:23:45;;;;;;;12.05;7.03;;;21.80;99.90;;;;;;14511812;23;20037;-67
2021/09/24 12:29:33;;;;;;;12.48;7.00;;;21.90;99.90;;;;;;14446178;23;20023;-67
2021/09/24 12:35:22;;;;;;;264.70;182.40;;;22.00;99.90;;;;;;14497156;23;20480;-68
2021/09/24 12:41:15;;;;;;;10.98;6.70;;;21.90;99.90;;;;;;14492179;23;20036;-68
2021/09/24 12:47:03;;;;;;;14.95;6.68;;;22.00;99.90;;;;;;14406232;23;20033;-67
2021/09/24 12:53:00;;;;;;;14.00;6.70;;;22.30;99.90;;;;;;14500195;23;20552;-68
2021/09/24 12:58:47;;;;;;;12.30;6.70;;;22.40;99.90;;;;;;14538224;23;20038;-67
2021/09/24 13:04:43;;;;;;;12.65;6.60;;;22.70;99.90;;;;;;14500764;23;20037;-67
2021/09/24 13:10:35;;;;;;;12.13;6.97;;;22.90;99.90;;;;;;14457962;23;20062;-67
2021/09/24 13:16:22;;;;;;;13.68;7.60;;;23.00;99.90;;;;;;14388274;23;20027;-67
2021/09/24 13:22:09;;;;;;;10.55;7.15;;;23.00;99.90;;;;;;14461153;23;20520;-67
2021/09/24 13:27:58;;;;;;;11.88;7.43;;;23.20;99.90;;;;;;14563639;23;20026;-67
2021/09/24 13:33:46;;;;;;;11.95;7.65;;;23.30;99.90;;;;;;14494602;23;20051;-67
2021/09/24 13:39:32;;;;;;;11.73;7.28;;;23.20;99.90;;;;;;14479958;23;20025;-67
2021/09/24 13:45:21;;;;;;;12.27;7.38;;;23.10;99.90;;;;;;14506902;23;20022;-67
2021/09/24 13:51:08;;;;;;;10.10;7.38;;;23.30;99.90;;;;;;14443031;23;20120;-68
2021/09/24 13:56:56;;;;;;;13.82;7.72;;;23.50;99.90;;;;;;14413313;23;20085;-68
2021/09/24 14:14:48;;;;;;;12.05;7.85;;;23.80;99.90;;;;;;14308864;23;20027;-68
2021/09/24 14:20:36;;;;;;;15.73;8.45;;;23.80;99.90;;;;;;14497206;23;20022;-69
2021/09/24 14:26:25;;;;;;;13.07;8.50;;;24.00;99.90;;;;;;14487646;23;20113;-68
2021/09/24 14:32:12;;;;;;;17.40;8.23;;;24.10;98.50;;;;;;14487778;23;20411;-68
2021/09/24 14:38:00;;;;;;;12.95;7.80;;;24.20;98.40;;;;;;14493066;23;20028;-68
2021/09/24 14:43:49;;;;;;;126.30;84.13;;;24.10;98.50;;;;;;14488927;23;20029;-69
2021/09/24 14:49:37;;;;;;;16.63;11.35;;;24.20;98.40;;;;;;14467826;23;20030;-70
2021/09/24 14:55:29;;;;;;;15.38;8.05;;;24.30;98.50;;;;;;14499782;23;20108;-70
2021/09/24 15:01:21;;;;;;;10.20;7.73;;;24.20;98.00;;;;;;14508976;23;20628;-70
2021/09/24 15:07:09;;;;;;;11.48;7.95;;;24.10;97.30;;;;;;14444645;23;20026;-70
2021/09/24 15:13:01;;;;;;;11.30;7.30;;;24.10;97.00;;;;;;14409717;23;20026;-70
2021/09/24 15:18:48;;;;;;;10.82;7.53;;;24.10;97.40;;;;;;14444555;23;20023;-68
2021/09/24 15:24:35;;;;;;;9.77;7.45;;;24.20;96.30;;;;;;14476507;23;20704;-69
2021/09/24 15:30:23;;;;;;;15.63;7.40;;;24.30;96.30;;;;;;14534407;23;20023;-70
2021/09/24 15:36:13;;;;;;;10.07;7.18;;;24.30;95.40;;;;;;14389647;23;20032;-70
2021/09/24 15:42:00;;;;;;;20.80;11.82;;;24.30;95.50;;;;;;14428203;23;20430;-71
2021/09/24 15:47:49;;;;;;;244.77;106.65;;;24.40;94.80;;;;;;14418560;23;20357;-69
2021/09/24 15:59:40;;;;;;;12.63;7.40;;;24.30;95.90;;;;;;14569939;23;20029;-70
2021/09/24 16:05:36;;;;;;;14.43;8.32;;;24.30;96.00;;;;;;14436014;23;20022;-71
2021/09/24 16:11:26;;;;;;;13.50;7.85;;;24.20;97.10;;;;;;14481421;23;20457;-69
2021/09/24 16:17:22;;;;;;;14.80;7.38;;;24.20;96.60;;;;;;14441473;23;20027;-69
2021/09/24 16:23:10;;;;;;;12.60;7.88;;;24.20;97.90;;;;;;14435594;23;20067;-69
2021/09/24 16:29:00;;;;;;;12.40;7.75;;;24.20;98.10;;;;;;14468265;23;20101;-70
2021/09/24 16:34:50;;;;;;;14.93;9.00;;;24.10;99.90;;;;;;14442559;23;20578;-69
2021/09/24 16:40:54;;;;;;;18.45;7.85;;;24.10;99.90;;;;;;14423876;23;20090;-70
2021/09/24 16:46:43;;;;;;;16.48;9.00;;;23.90;99.90;;;;;;14465582;23;20389;-70
2021/09/24 16:52:33;;;;;;;11.95;8.07;;;23.60;99.90;;;;;;14498929;23;20101;-68
2021/09/24 17:04:27;;;;;;;11.95;8.48;;;22.70;99.90;;;;;;14399253;23;20023;-70
2021/09/24 17:10:17;;;;;;;13.93;9.35;;;22.40;99.90;;;;;;14510746;23;20034;-70
2021/09/24 17:16:05;;;;;;;15.25;8.70;;;22.10;99.90;;;;;;14472140;23;20026;-70
2021/09/24 17:21:54;;;;;;;15.90;9.38;;;21.80;99.90;;;;;;14446475;23;20141;-68
2021/09/24 17:27:42;;;;;;;13.95;9.88;;;21.60;99.90;;;;;;14473825;23;20077;-69
2021/09/24 17:33:41;;;;;;;15.25;10.30;;;21.40;99.90;;;;;;14477966;23;20479;-70
2021/09/24 17:39:31;;;;;;;24.90;11.10;;;21.20;99.90;;;;;;14477514;23;20022;-70
2021/09/24 17:45:29;;;;;;;19.67;10.38;;;21.10;99.90;;;;;;14434333;23;20018;-70
2021/09/24 17:51:28;;;;;;;13.98;10.00;;;20.90;99.90;;;;;;14463263;23;20053;-71
2021/09/24 17:57:15;;;;;;;22.33;11.70;;;20.80;99.90;;;;;;14493747;23;20031;-70
2021/09/24 18:03:10;;;;;;;19.20;11.88;;;20.70;99.90;;;;;;14461124;23;20118;-70
2021/09/24 18:09:24;;;;;;;15.70;10.43;;;20.60;99.90;;;;;;14450099;23;20065;-70
2021/09/24 18:15:13;;;;;;;;;;;20.40;99.90;;;;;;14420714;23;20030;-70
2021/09/24 18:27:04;;;;;;;15.55;10.75;;;20.10;99.90;;;;;;14523092;23;20019;-70
2021/09/24 18:39:04;;;;;;;20.43;11.23;;;19.90;99.90;;;;;;14444208;23;20022;-70
2021/09/24 18:45:11;;;;;;;19.27;11.20;;;19.90;99.90;;;;;;14441488;23;20026;-70
2021/09/24 18:56:59;;;;;;;18.00;11.73;;;19.80;99.90;;;;;;14488915;23;20037;-70
2021/09/24 19:02:56;;;;;;;20.15;12.32;;;19.70;99.90;;;;;;14462872;23;20131;-70
2021/09/24 19:20:56;;;;;;;24.80;12.60;;;19.50;99.90;;;;;;14424144;23;20026;-70
2021/09/24 19:26:43;;;;;;;18.42;11.68;;;19.50;99.90;;;;;;14498793;23;20495;-68
2021/09/24 19:32:30;;;;;;;21.27;12.98;;;19.40;99.90;;;;;;14538009;23;20015;-68
2021/09/24 19:38:18;;;;;;;19.17;12.57;;;19.50;99.90;;;;;;14468814;23;20027;-68
2021/09/24 19:44:05;;;;;;;24.23;15.13;;;19.40;99.90;;;;;;14557403;23;20030;-68
2021/09/24 19:49:53;;;;;;;45.97;27.50;;;19.40;99.90;;;;;;14531868;23;20462;-68
2021/09/24 19:55:41;;;;;;;28.35;16.13;;;19.40;99.90;;;;;;14537708;23;20034;-68
2021/09/24 20:01:28;;;;;;;28.83;15.48;;;19.40;99.90;;;;;;14556308;23;20054;-68
2021/09/24 20:07:15;;;;;;;25.15;12.23;;;19.30;99.90;;;;;;14570339;23;20026;-68
2021/09/24 20:13:03;;;;;;;22.50;13.57;;;19.30;99.90;;;;;;14515764;23;20135;-68
2021/09/24 20:18:50;;;;;;;21.58;12.88;;;19.30;99.90;;;;;;14549161;23;20030;-68
2021/09/24 20:24:37;;;;;;;15.32;10.13;;;19.20;99.90;;;;;;14546212;23;20018;-69
2021/09/24 20:30:26;;;;;;;15.43;9.70;;;19.20;99.90;;;;;;14500743;23;20082;-70
